Time;durP1;ratioP1;P1;durP2;ratioP2;P2;SDS_P1;SDS_P2;PMS_P1;PMS_P2;Temp;Humidity;BMP_temperature;BMP_pressure;BME280_temperature;BME280_humidity;BME280_pressure;Samples;Min_cycle;Max_cycle;Signal;HPM_P1;HPM_P2
2021/12/30 00:00:11;;;;;;;;;;;;;;;;;;5052867;28;19929;-76
2021/12/30 00:02:38;;;;;;;;;;;;;;;;;;5053392;28;19932;-76
2021/12/30 00:05:05;;;;;;;;;;;;;;;;;;5052735;28;20314;-76
2021/12/30 00:07:31;;;;;;;;;;;;;;;;;;5054765;28;19931;-77
2021/12/30 00:09:58;;;;;;;;;;;;;;;;;;5057827;28;19924;-77
2021/12/30 00:12:25;;;;;;;;;;;;;;;;;;5055556;28;19925;-78
2021/12/30 00:14:52;;;;;;;;;;;;;;;;;;5047996;28;19936;-75
2021/12/30 00:17:19;;;;;;;;;;;;;;;;;;5050968;28;19924;-77
2021/12/30 00:19:46;;;;;;;;;;;;;;;;;;5045258;28;19925;-76
2021/12/30 00:22:13;;;;;;;;;;;;;;;;;;5042996;28;19925;-76
2021/12/30 00:24:40;;;;;;;;;;;;;;;;;;5049044;28;20039;-77
2021/12/30 00:27:07;;;;;;;;;;;;;;;;;;5049023;28;19932;-76
2021/12/30 00:29:36;;;;;;;;;;;;;;;;;;5048383;28;19970;-78
2021/12/30 00:32:03;;;;;;;;;;;;;;;;;;5046809;28;19925;-78
2021/12/30 00:34:30;;;;;;;;;;;;;;;;;;5050145;28;19935;-77
2021/12/30 00:36:57;;;;;;;;;;;;;;;;;;5044729;28;20285;-77
2021/12/30 00:39:27;;;;;;;;;;;;;;;;;;5048696;28;19979;-77
2021/12/30 00:41:54;;;;;;;;;;;;;;;;;;5048659;28;20386;-76
2021/12/30 00:44:21;;;;;;;;;;;;;;;;;;5053855;28;20405;-77
2021/12/30 00:46:48;;;;;;;;;;;;;;;;;;5054442;28;19931;-76
2021/12/30 00:49:15;;;;;;;;;;;;;;;;;;5053533;28;19931;-76
2021/12/30 00:51:42;;;;;;;;;;;;;;;;;;5049753;28;19935;-77
2021/12/30 00:54:09;;;;;;;;;;;;;;;;;;5047562;28;19967;-77
2021/12/30 00:56:36;;;;;;;;;;;;;;;;;;5052194;28;19932;-77
2021/12/30 00:59:03;;;;;;;;;;;;;;;;;;5057584;28;20271;-77
2021/12/30 01:01:29;;;;;;;;;;;;;;;;;;5053317;28;20019;-77
2021/12/30 01:03:56;;;;;;;;;;;;;;;;;;5052659;28;20031;-76
2021/12/30 01:06:23;;;;;;;;;;;;;;;;;;5052855;28;20259;-77
2021/12/30 01:08:50;;;;;;;;;;;;;;;;;;5053923;28;19925;-77
2021/12/30 01:11:20;;;;;;;;;;;;;;;;;;5052612;28;20007;-75
2021/12/30 01:13:55;;;;;;;;;;;;;;;;;;5052744;28;19972;-76
2021/12/30 01:16:24;;;;;;;;;;;;;;;;;;5053411;28;20014;-78
2021/12/30 01:19:03;;;;;;;;;;;;;;;;;;5053027;28;19971;-77
2021/12/30 01:21:30;;;;;;;;;;;;;;;;;;5046066;28;20129;-76
2021/12/30 01:23:57;;;;;;;;;;;;;;;;;;5046749;28;19931;-76
2021/12/30 01:26:24;;;;;;;;;;;;;;;;;;5051770;28;19947;-77
2021/12/30 01:28:51;;;;;;;;;;;;;;;;;;5051416;28;19925;-76
2021/12/30 01:31:18;;;;;;;;;;;;;;;;;;5051078;28;20402;-77
2021/12/30 01:33:46;;;;;;;;;;;;;;;;;;5050921;28;20066;-77
2021/12/30 01:36:13;;;;;;;;;;;;;;;;;;5051807;28;19940;-77
2021/12/30 01:38:40;;;;;;;;;;;;;;;;;;5051437;28;19925;-77
2021/12/30 01:41:07;;;;;;;;;;;;;;;;;;5050911;28;19924;-77
2021/12/30 01:43:36;;;;;;;;;;;;;;;;;;5048089;28;20027;-77
2021/12/30 01:46:03;;;;;;;;;;;;;;;;;;5044827;28;20417;-77
2021/12/30 01:48:30;;;;;;;;;;;;;;;;;;5046229;28;20441;-77
2021/12/30 01:50:57;;;;;;;;;;;;;;;;;;5045842;28;20380;-77
2021/12/30 01:53:24;;;;;;;;;;;;;;;;;;5042451;28;20382;-77
2021/12/30 01:55:51;;;;;;;;;;;;;;;;;;5049598;28;20298;-77
2021/12/30 01:58:17;;;;;;;;;;;;;;;;;;5046036;28;19935;-77
2021/12/30 02:00:44;;;;;;;;;;;;;;;;;;5045291;28;19926;-76
2021/12/30 02:03:11;;;;;;;;;;;;;;;;;;5047976;28;20015;-76
2021/12/30 02:05:38;;;;;;;;;;;;;;;;;;5043766;28;19932;-75
2021/12/30 02:08:05;;;;;;;;;;;;;;;;;;5045824;28;19925;-76
2021/12/30 02:10:32;;;;;;;;;;;;;;;;;;5046179;28;20012;-77
2021/12/30 02:12:59;;;;;;;;;;;;;;;;;;5044992;28;20309;-76
2021/12/30 02:15:26;;;;;;;;;;;;;;;;;;5050837;28;19931;-76
2021/12/30 02:17:54;;;;;;;;;;;;;;;;;;5050974;28;19971;-76
2021/12/30 02:20:21;;;;;;;;;;;;;;;;;;5050736;28;19982;-76
2021/12/30 02:22:48;;;;;;;;;;;;;;;;;;5050816;28;19929;-76
2021/12/30 02:25:15;;;;;;;;;;;;;;;;;;5051041;28;19924;-76
2021/12/30 02:27:42;;;;;;;;;;;;;;;;;;5050958;28;19928;-75
2021/12/30 02:30:09;;;;;;;;;;;;;;;;;;5050290;28;19928;-77
2021/12/30 02:32:36;;;;;;;;;;;;;;;;;;5050947;28;20019;-76
2021/12/30 02:35:03;;;;;;;;;;;;;;;;;;5050694;28;19936;-76
2021/12/30 02:37:30;;;;;;;;;;;;;;;;;;5050926;28;19925;-76
2021/12/30 02:39:57;;;;;;;;;;;;;;;;;;5050358;28;19925;-76
2021/12/30 02:42:23;;;;;;;;;;;;;;;;;;5050430;28;20218;-76
2021/12/30 02:44:50;;;;;;;;;;;;;;;;;;5050760;28;19936;-76
2021/12/30 02:47:17;;;;;;;;;;;;;;;;;;5050859;28;19931;-76
2021/12/30 02:49:44;;;;;;;;;;;;;;;;;;5050888;28;19925;-77
2021/12/30 02:52:11;;;;;;;;;;;;;;;;;;5051115;28;19926;-77
2021/12/30 02:54:38;;;;;;;;;;;;;;;;;;5054533;28;19925;-77
2021/12/30 02:57:05;;;;;;;;;;;;;;;;;;5054211;28;19947;-77
2021/12/30 02:59:32;;;;;;;;;;;;;;;;;;5054576;28;20015;-77
2021/12/30 03:01:59;;;;;;;;;;;;;;;;;;5054094;28;19948;-77
2021/12/30 03:04:26;;;;;;;;;;;;;;;;;;5054138;28;19924;-77
2021/12/30 03:06:53;;;;;;;;;;;;;;;;;;5054089;28;19929;-77
2021/12/30 03:09:20;;;;;;;;;;;;;;;;;;5054007;28;19931;-75
2021/12/30 03:11:47;;;;;;;;;;;;;;;;;;5053198;28;19929;-75
2021/12/30 03:14:14;;;;;;;;;;;;;;;;;;5053881;28;19925;-76
2021/12/30 03:16:42;;;;;;;;;;;;;;;;;;5054366;28;19935;-77
2021/12/30 03:19:09;;;;;;;;;;;;;;;;;;5054094;28;19924;-77
2021/12/30 03:21:36;;;;;;;;;;;;;;;;;;5042744;28;20390;-77
2021/12/30 03:24:03;;;;;;;;;;;;;;;;;;5053428;28;20359;-77
2021/12/30 03:26:31;;;;;;;;;;;;;;;;;;5043064;28;20040;-77
2021/12/30 03:28:58;;;;;;;;;;;;;;;;;;5054242;28;19927;-77
2021/12/30 03:31:25;;;;;;;;;;;;;;;;;;5053007;28;19925;-77
2021/12/30 03:33:52;;;;;;;;;;;;;;;;;;5053558;28;19932;-77
2021/12/30 03:36:19;;;;;;;;;;;;;;;;;;5053438;28;19956;-77
2021/12/30 03:38:46;;;;;;;;;;;;;;;;;;5053579;28;19925;-77
2021/12/30 03:41:13;;;;;;;;;;;;;;;;;;5052262;28;20008;-76
2021/12/30 03:43:40;;;;;;;;;;;;;;;;;;5049265;28;19932;-77
2021/12/30 03:46:07;;;;;;;;;;;;;;;;;;5053501;28;19931;-77
2021/12/30 03:48:39;;;;;;;;;;;;;;;;;;5053336;28;19932;-77
2021/12/30 03:51:08;;;;;;;;;;;;;;;;;;5052513;28;20000;-77
2021/12/30 03:53:37;;;;;;;;;;;;;;;;;;5053204;28;19929;-76
2021/12/30 03:56:04;;;;;;;;;;;;;;;;;;5053415;28;19929;-77
2021/12/30 03:58:31;;;;;;;;;;;;;;;;;;5053267;28;20405;-77
2021/12/30 04:00:58;;;;;;;;;;;;;;;;;;5052519;28;19937;-77
2021/12/30 04:03:25;;;;;;;;;;;;;;;;;;5052869;28;19924;-78
2021/12/30 04:05:52;;;;;;;;;;;;;;;;;;5052909;28;19924;-78
2021/12/30 04:08:19;;;;;;;;;;;;;;;;;;5053284;28;19947;-77
2021/12/30 04:10:46;;;;;;;;;;;;;;;;;;5052354;28;20374;-77
2021/12/30 04:13:13;;;;;;;;;;;;;;;;;;5052743;28;19929;-77
2021/12/30 04:15:40;;;;;;;;;;;;;;;;;;5042466;28;20303;-77
2021/12/30 04:18:07;;;;;;;;;;;;;;;;;;5052838;28;20401;-78
2021/12/30 04:20:34;;;;;;;;;;;;;;;;;;5051944;28;20374;-77
2021/12/30 04:23:01;;;;;;;;;;;;;;;;;;5052651;28;19925;-77
2021/12/30 04:25:28;;;;;;;;;;;;;;;;;;5052542;28;19925;-78
2021/12/30 04:27:55;;;;;;;;;;;;;;;;;;5052540;28;20007;-77
2021/12/30 04:30:21;;;;;;;;;;;;;;;;;;5051867;28;19924;-77
2021/12/30 04:32:48;;;;;;;;;;;;;;;;;;5052170;28;19925;-77
2021/12/30 04:35:15;;;;;;;;;;;;;;;;;;5051454;28;19929;-78
2021/12/30 04:37:43;;;;;;;;;;;;;;;;;;5045299;28;19925;-77
2021/12/30 04:40:10;;;;;;;;;;;;;;;;;;5052236;28;19925;-77
2021/12/30 04:42:37;;;;;;;;;;;;;;;;;;5052318;28;19932;-77
2021/12/30 04:45:04;;;;;;;;;;;;;;;;;;5052227;28;19939;-77
2021/12/30 04:47:31;;;;;;;;;;;;;;;;;;5052077;28;20015;-77
2021/12/30 04:49:58;;;;;;;;;;;;;;;;;;5052350;28;19924;-78
2021/12/30 04:52:25;;;;;;;;;;;;;;;;;;5047152;28;19940;-78
2021/12/30 04:54:52;;;;;;;;;;;;;;;;;;5052431;28;20008;-77
2021/12/30 04:57:19;;;;;;;;;;;;;;;;;;5052404;28;20028;-78
2021/12/30 04:59:46;;;;;;;;;;;;;;;;;;5052121;28;19925;-78
2021/12/30 05:02:15;;;;;;;;;;;;;;;;;;5046276;28;21413;-78
2021/12/30 05:04:42;;;;;;;;;;;;;;;;;;5052071;28;19931;-78
2021/12/30 05:07:09;;;;;;;;;;;;;;;;;;5052732;28;20015;-79
2021/12/30 05:09:36;;;;;;;;;;;;;;;;;;5047339;28;19924;-78
2021/12/30 05:12:02;;;;;;;;;;;;;;;;;;5051175;28;19924;-77
2021/12/30 05:14:29;;;;;;;;;;;;;;;;;;5051134;28;20012;-78
2021/12/30 05:17:02;;;;;;;;;;;;;;;;;;5051753;28;19928;-78
2021/12/30 05:19:29;;;;;;;;;;;;;;;;;;5051668;28;20390;-77
2021/12/30 05:21:56;;;;;;;;;;;;;;;;;;5074920;22;19931;-74
2021/12/30 05:24:23;;;;;;;;;;;;;;;;;;5071905;28;19929;-74
2021/12/30 05:26:50;;;;;;;;;;;;;;;;;;5071614;28;19960;-74
2021/12/30 05:29:17;;;;;;;;;;;;;;;;;;5071552;28;19951;-74
2021/12/30 05:31:44;;;;;;;;;;;;;;;;;;5080859;28;20373;-74
2021/12/30 05:34:11;;;;;;;;;;;;;;;;;;5091517;28;20308;-74
2021/12/30 05:36:38;;;;;;;;;;;;;;;;;;5091940;28;20292;-74
2021/12/30 05:39:04;;;;;;;;;;;;;;;;;;5091993;28;20031;-74
2021/12/30 05:41:31;;;;;;;;;;;;;;;;;;5090956;28;20019;-74
2021/12/30 05:44:00;;;;;;;;;;;;;;;;;;5091836;28;20035;-74
2021/12/30 05:46:27;;;;;;;;;;;;;;;;;;5091620;28;19930;-74
2021/12/30 05:48:54;;;;;;;;;;;;;;;;;;5091888;28;20432;-74
2021/12/30 05:51:21;;;;;;;;;;;;;;;;;;5083940;28;19924;-74
2021/12/30 05:53:48;;;;;;;;;;;;;;;;;;5091399;28;19924;-74
2021/12/30 05:56:15;;;;;;;;;;;;;;;;;;5091187;28;20028;-74
2021/12/30 05:58:42;;;;;;;;;;;;;;;;;;5091658;28;19924;-74
2021/12/30 06:01:09;;;;;;;;;;;;;;;;;;5090745;28;19946;-74
2021/12/30 06:03:36;;;;;;;;;;;;;;;;;;5091528;28;19928;-74
2021/12/30 06:06:03;;;;;;;;;;;;;;;;;;5091276;28;19924;-74
2021/12/30 06:08:30;;;;;;;;;;;;;;;;;;5091607;28;20126;-74
2021/12/30 06:10:57;;;;;;;;;;;;;;;;;;5091156;28;20019;-74
2021/12/30 06:13:24;;;;;;;;;;;;;;;;;;5085742;28;19925;-73
2021/12/30 06:15:51;;;;;;;;;;;;;;;;;;5091406;28;20385;-74
2021/12/30 06:18:17;;;;;;;;;;;;;;;;;;5090983;28;19930;-73
2021/12/30 06:20:44;;;;;;;;;;;;;;;;;;5091399;28;19924;-73
2021/12/30 06:23:11;;;;;;;;;;;;;;;;;;5090953;28;19924;-74
2021/12/30 06:25:38;;;;;;;;;;;;;;;;;;5091531;28;19950;-73
2021/12/30 06:28:05;;;;;;;;;;;;;;;;;;5093739;28;19928;-74
2021/12/30 06:30:32;;;;;;;;;;;;;;;;;;5094789;28;19924;-74
2021/12/30 06:32:59;;;;;;;;;;;;;;;;;;5094996;28;19932;-74
2021/12/30 06:35:31;;;;;;;;;;;;;;;;;;5095103;28;20403;-73
2021/12/30 06:37:58;;;;;;;;;;;;;;;;;;5095506;28;20027;-72
2021/12/30 06:40:25;;;;;;;;;;;;;;;;;;5094408;28;19932;-73
2021/12/30 06:42:52;;;;;;;;;;;;;;;;;;5094727;28;19924;-73
2021/12/30 06:45:19;;;;;;;;;;;;;;;;;;5094802;28;19930;-74
2021/12/30 06:47:46;;;;;;;;;;;;;;;;;;5095014;28;19951;-73
2021/12/30 06:50:14;;;;;;;;;;;;;;;;;;5094255;28;19985;-73
2021/12/30 06:52:41;;;;;;;;;;;;;;;;;;5094042;28;19986;-73
2021/12/30 06:55:07;;;;;;;;;;;;;;;;;;5095074;28;19924;-72
2021/12/30 06:57:34;;;;;;;;;;;;;;;;;;5094620;28;20006;-74
2021/12/30 07:00:01;;;;;;;;;;;;;;;;;;5094020;28;19924;-74
2021/12/30 07:02:28;;;;;;;;;;;;;;;;;;5094368;28;20027;-74
2021/12/30 07:04:55;;;;;;;;;;;;;;;;;;5094352;28;20114;-74
2021/12/30 07:07:22;;;;;;;;;;;;;;;;;;5094381;28;19930;-73
2021/12/30 07:09:49;;;;;;;;;;;;;;;;;;5093991;28;20292;-73
2021/12/30 07:12:16;;;;;;;;;;;;;;;;;;5094037;28;19924;-72
2021/12/30 07:14:43;;;;;;;;;;;;;;;;;;5093929;28;19924;-72
2021/12/30 07:17:10;;;;;;;;;;;;;;;;;;5094224;28;19925;-72
2021/12/30 07:19:37;;;;;;;;;;;;;;;;;;5093724;28;19924;-72
2021/12/30 07:22:04;;;;;;;;;;;;;;;;;;5093722;28;19924;-72
2021/12/30 07:24:31;;;;;;;;;;;;;;;;;;5093772;28;19924;-72
2021/12/30 07:26:58;;;;;;;;;;;;;;;;;;5094145;28;19924;-73
2021/12/30 07:29:25;;;;;;;;;;;;;;;;;;5093577;28;19947;-73
2021/12/30 07:31:51;;;;;;;;;;;;;;;;;;5088451;28;20390;-72
2021/12/30 07:34:18;;;;;;;;;;;;;;;;;;5083160;28;19934;-72
2021/12/30 07:36:45;;;;;;;;;;;;;;;;;;5093478;28;19928;-73
2021/12/30 07:39:12;;;;;;;;;;;;;;;;;;5092993;28;19924;-73
2021/12/30 07:41:39;;;;;;;;;;;;;;;;;;5093032;28;19930;-73
2021/12/30 07:44:06;;;;;;;;;;;;;;;;;;5093644;28;19928;-72
2021/12/30 07:46:33;;;;;;;;;;;;;;;;;;5093626;28;20231;-72
2021/12/30 07:49:00;;;;;;;;;;;;;;;;;;5093084;28;19928;-73
2021/12/30 07:51:27;;;;;;;;;;;;;;;;;;5089005;28;19924;-73
2021/12/30 07:53:54;;;;;;;;;;;;;;;;;;5093062;28;20306;-72
2021/12/30 07:56:21;;;;;;;;;;;;;;;;;;5093464;28;20382;-72
2021/12/30 07:58:48;;;;;;;;;;;;;;;;;;5088188;28;19931;-71
2021/12/30 08:01:15;;;;;;;;;;;;;;;;;;5092816;28;20011;-73
2021/12/30 08:03:42;;;;;;;;;;;;;;;;;;5092658;28;20006;-72
2021/12/30 08:06:09;;;;;;;;;;;;;;;;;;5093129;28;20019;-72
2021/12/30 08:08:36;;;;;;;;;;;;;;;;;;5093059;28;19934;-73
2021/12/30 08:11:03;;;;;;;;;;;;;;;;;;5093140;28;19946;-73
2021/12/30 08:13:30;;;;;;;;;;;;;;;;;;5092879;28;19924;-73
2021/12/30 08:15:56;;;;;;;;;;;;;;;;;;5092682;28;19934;-73
2021/12/30 08:18:23;;;;;;;;;;;;;;;;;;5093174;28;19936;-73
2021/12/30 08:20:52;;;;;;;;;;;;;;;;;;5089728;28;19924;-73
2021/12/30 08:23:18;;;;;;;;;;;;;;;;;;5092793;28;19975;-73
2021/12/30 08:25:49;;;;;;;;;;;;;;;;;;5087839;28;19928;-73
2021/12/30 08:28:16;;;;;;;;;;;;;;;;;;5092887;28;19971;-73
2021/12/30 08:30:43;;;;;;;;;;;;;;;;;;5091866;28;19930;-73
2021/12/30 08:33:10;;;;;;;;;;;;;;;;;;5092570;28;20293;-73
2021/12/30 08:35:37;;;;;;;;;;;;;;;;;;5092689;28;19924;-74
2021/12/30 08:38:04;;;;;;;;;;;;;;;;;;5092644;28;19931;-73
2021/12/30 08:40:31;;;;;;;;;;;;;;;;;;5092229;28;19930;-73
2021/12/30 08:42:58;;;;;;;;;;;;;;;;;;5092192;28;19924;-73
2021/12/30 08:45:24;;;;;;;;;;;;;;;;;;5092799;28;20119;-72
2021/12/30 08:47:51;;;;;;;;;;;;;;;;;;5092749;28;19924;-72
2021/12/30 08:50:18;;;;;;;;;;;;;;;;;;5091360;28;19928;-72
2021/12/30 08:52:45;;;;;;;;;;;;;;;;;;5092375;28;20042;-73
2021/12/30 08:55:13;;;;;;;;;;;;;;;;;;5092033;28;20344;-73
2021/12/30 08:57:41;;;;;;;;;;;;;;;;;;5092335;28;20313;-73
2021/12/30 09:00:08;;;;;;;;;;;;;;;;;;5091768;28;19924;-73
2021/12/30 09:02:35;;;;;;;;;;;;;;;;;;5092425;28;20247;-73
2021/12/30 09:05:02;;;;;;;;;;;;;;;;;;5092327;28;19930;-73
2021/12/30 09:07:29;;;;;;;;;;;;;;;;;;5092162;28;20285;-73
2021/12/30 09:09:56;;;;;;;;;;;;;;;;;;5091167;28;20382;-72
2021/12/30 09:12:24;;;;;;;;;;;;;;;;;;5091572;28;19924;-72
2021/12/30 09:14:51;;;;;;;;;;;;;;;;;;5092196;28;19924;-73
2021/12/30 09:17:18;;;;;;;;;;;;;;;;;;5091792;28;19924;-73
2021/12/30 09:19:45;;;;;;;;;;;;;;;;;;5086454;28;20790;-73
2021/12/30 09:22:11;;;;;;;;;;;;;;;;;;5091314;28;20369;-72
2021/12/30 09:24:38;;;;;;;;;;;;;;;;;;5091601;28;19924;-72
2021/12/30 09:27:05;;;;;;;;;;;;;;;;;;5092031;28;19928;-72
2021/12/30 09:29:32;;;;;;;;;;;;;;;;;;5091529;28;20404;-72
2021/12/30 09:31:59;;;;;;;;;;;;;;;;;;5091218;28;19924;-72
2021/12/30 09:34:26;;;;;;;;;;;;;;;;;;5091645;28;19928;-72
2021/12/30 09:36:53;;;;;;;;;;;;;;;;;;5091037;28;19925;-72
2021/12/30 09:39:20;;;;;;;;;;;;;;;;;;5091111;28;19924;-72
2021/12/30 09:41:47;;;;;;;;;;;;;;;;;;5091348;28;20185;-72
2021/12/30 09:44:14;;;;;;;;;;;;;;;;;;5091366;28;20007;-72
2021/12/30 09:46:41;;;;;;;;;;;;;;;;;;5086709;28;19924;-72
2021/12/30 09:49:08;;;;;;;;;;;;;;;;;;5091298;28;20383;-72
2021/12/30 09:51:35;;;;;;;;;;;;;;;;;;5091115;28;20374;-72
2021/12/30 09:54:02;;;;;;;;;;;;;;;;;;5091125;28;20392;-72
2021/12/30 09:56:29;;;;;;;;;;;;;;;;;;5091116;28;19924;-72
2021/12/30 09:58:56;;;;;;;;;;;;;;;;;;5091293;28;19935;-73
2021/12/30 10:01:23;;;;;;;;;;;;;;;;;;5094062;28;19924;-72
2021/12/30 10:03:50;;;;;;;;;;;;;;;;;;5098007;28;19930;-72
2021/12/30 10:06:17;;;;;;;;;;;;;;;;;;5097421;28;19931;-72
2021/12/30 10:08:44;;;;;;;;;;;;;;;;;;5097952;28;19924;-72
2021/12/30 10:11:13;;;;;;;;;;;;;;;;;;5097587;28;19931;-72
2021/12/30 10:13:42;;;;;;;;;;;;;;;;;;5097917;28;20360;-72
2021/12/30 10:16:09;;;;;;;;;;;;;;;;;;5098291;28;20027;-72
2021/12/30 10:18:36;;;;;;;;;;;;;;;;;;5097637;28;19930;-72
2021/12/30 10:21:03;;;;;;;;;;;;;;;;;;5097811;28;20297;-72
2021/12/30 10:23:30;;;;;;;;;;;;;;;;;;5097900;28;20377;-72
2021/12/30 10:25:57;;;;;;;;;;;;;;;;;;5098025;28;20349;-72
2021/12/30 10:28:24;;;;;;;;;;;;;;;;;;5097674;28;19924;-73
2021/12/30 10:30:51;;;;;;;;;;;;;;;;;;5097385;28;20370;-73
2021/12/30 10:33:18;;;;;;;;;;;;;;;;;;5097723;28;20381;-71
2021/12/30 10:35:45;;;;;;;;;;;;;;;;;;5097402;28;19924;-72
2021/12/30 10:38:12;;;;;;;;;;;;;;;;;;5097846;28;19930;-72
2021/12/30 10:40:39;;;;;;;;;;;;;;;;;;5097198;28;20405;-72
2021/12/30 10:43:06;;;;;;;;;;;;;;;;;;5087198;28;20023;-72
2021/12/30 10:45:33;;;;;;;;;;;;;;;;;;5097364;28;20370;-72
2021/12/30 10:48:00;;;;;;;;;;;;;;;;;;5096738;28;20285;-72
2021/12/30 10:50:27;;;;;;;;;;;;;;;;;;5092788;28;19930;-72
2021/12/30 10:52:54;;;;;;;;;;;;;;;;;;5097347;28;20053;-73
2021/12/30 10:55:21;;;;;;;;;;;;;;;;;;5097203;28;19931;-73
2021/12/30 10:57:48;;;;;;;;;;;;;;;;;;5097275;28;20398;-73
2021/12/30 11:00:15;;;;;;;;;;;;;;;;;;5097129;28;19936;-73
2021/12/30 11:02:42;;;;;;;;;;;;;;;;;;5097288;28;19931;-73
2021/12/30 11:05:09;;;;;;;;;;;;;;;;;;5097434;28;19924;-73
2021/12/30 11:07:36;;;;;;;;;;;;;;;;;;5099990;28;20352;-73
2021/12/30 11:10:03;;;;;;;;;;;;;;;;;;5097481;28;19954;-74
2021/12/30 11:12:30;;;;;;;;;;;;;;;;;;5095743;28;20297;-74
2021/12/30 11:14:57;;;;;;;;;;;;;;;;;;5086296;28;20297;-73
2021/12/30 11:17:29;;;;;;;;;;;;;;;;;;5094500;28;20296;-72
2021/12/30 11:19:56;;;;;;;;;;;;;;;;;;5089550;28;20019;-73
2021/12/30 11:22:23;;;;;;;;;;;;;;;;;;5093882;28;20386;-73
2021/12/30 11:24:50;;;;;;;;;;;;;;;;;;5093628;28;20378;-74
2021/12/30 11:27:17;;;;;;;;;;;;;;;;;;5093638;28;19939;-74
2021/12/30 11:29:45;;;;;;;;;;;;;;;;;;5094049;28;19924;-74
2021/12/30 11:32:13;;;;;;;;;;;;;;;;;;5093650;28;19928;-74
2021/12/30 11:34:40;;;;;;;;;;;;;;;;;;5093896;28;19939;-74
2021/12/30 11:37:07;;;;;;;;;;;;;;;;;;5094027;28;19928;-74
2021/12/30 11:39:34;;;;;;;;;;;;;;;;;;5093881;28;19924;-73
2021/12/30 11:42:01;;;;;;;;;;;;;;;;;;5092995;28;19924;-73
2021/12/30 11:44:27;;;;;;;;;;;;;;;;;;5093927;28;19924;-73
2021/12/30 11:46:54;;;;;;;;;;;;;;;;;;5088332;28;20385;-75
2021/12/30 11:49:21;;;;;;;;;;;;;;;;;;5084656;28;20400;-73
2021/12/30 11:51:48;;;;;;;;;;;;;;;;;;5086393;28;19925;-74
2021/12/30 11:54:15;;;;;;;;;;;;;;;;;;5088095;28;20060;-73
2021/12/30 11:56:42;;;;;;;;;;;;;;;;;;5087949;28;20381;-74
2021/12/30 11:59:09;;;;;;;;;;;;;;;;;;5084354;28;19931;-74
2021/12/30 12:01:36;;;;;;;;;;;;;;;;;;5086266;28;19934;-74
2021/12/30 12:04:03;;;;;;;;;;;;;;;;;;5087762;28;19934;-74
2021/12/30 12:06:31;;;;;;;;;;;;;;;;;;5088112;28;19924;-74
2021/12/30 12:08:58;;;;;;;;;;;;;;;;;;5084266;28;19924;-73
2021/12/30 12:11:25;;;;;;;;;;;;;;;;;;5085791;28;19931;-74
2021/12/30 12:13:53;;;;;;;;;;;;;;;;;;5092933;28;19969;-74
2021/12/30 12:16:20;;;;;;;;;;;;;;;;;;5093036;28;20297;-73
2021/12/30 12:18:47;;;;;;;;;;;;;;;;;;5092602;28;19928;-74
2021/12/30 12:21:14;;;;;;;;;;;;;;;;;;5092362;28;19931;-74
2021/12/30 12:23:42;;;;;;;;;;;;;;;;;;5092385;28;19924;-74
2021/12/30 12:26:09;;;;;;;;;;;;;;;;;;5091773;28;19924;-74
2021/12/30 12:28:36;;;;;;;;;;;;;;;;;;5092833;28;19931;-73
2021/12/30 12:31:03;;;;;;;;;;;;;;;;;;5092504;28;19931;-74
2021/12/30 12:33:31;;;;;;;;;;;;;;;;;;5093052;28;19931;-73
2021/12/30 12:35:58;;;;;;;;;;;;;;;;;;5092568;28;19924;-73
2021/12/30 12:38:25;;;;;;;;;;;;;;;;;;5091895;28;19924;-73
2021/12/30 12:40:52;;;;;;;;;;;;;;;;;;5092283;28;19963;-73
2021/12/30 12:43:19;;;;;;;;;;;;;;;;;;5087559;28;19924;-74
2021/12/30 12:45:46;;;;;;;;;;;;;;;;;;5092779;28;19930;-73
2021/12/30 12:48:13;;;;;;;;;;;;;;;;;;5092338;28;19990;-73
2021/12/30 12:50:41;;;;;;;;;;;;;;;;;;5091907;28;19924;-73
2021/12/30 12:53:08;;;;;;;;;;;;;;;;;;5092169;28;20334;-73
2021/12/30 12:55:35;;;;;;;;;;;;;;;;;;5092347;28;19924;-73
2021/12/30 12:58:02;;;;;;;;;;;;;;;;;;5092111;28;19935;-73
2021/12/30 13:00:29;;;;;;;;;;;;;;;;;;5091746;28;19924;-74
2021/12/30 13:02:56;;;;;;;;;;;;;;;;;;5092389;28;19930;-73
2021/12/30 13:05:23;;;;;;;;;;;;;;;;;;5091774;28;19931;-73
2021/12/30 13:07:51;;;;;;;;;;;;;;;;;;5092527;28;19924;-72
2021/12/30 13:10:19;;;;;;;;;;;;;;;;;;5093711;28;20246;-73
2021/12/30 13:12:47;;;;;;;;;;;;;;;;;;5092465;28;20023;-73
2021/12/30 13:15:14;;;;;;;;;;;;;;;;;;5091894;28;19924;-73
2021/12/30 13:17:43;;;;;;;;;;;;;;;;;;5091612;28;19947;-73
2021/12/30 13:20:10;;;;;;;;;;;;;;;;;;5091153;28;19928;-73
2021/12/30 13:22:37;;;;;;;;;;;;;;;;;;5091508;28;19947;-73
2021/12/30 13:25:04;;;;;;;;;;;;;;;;;;5091981;28;19970;-73
2021/12/30 13:27:31;;;;;;;;;;;;;;;;;;5091084;28;19930;-73
2021/12/30 13:29:58;;;;;;;;;;;;;;;;;;5091786;28;19986;-74
2021/12/30 13:32:25;;;;;;;;;;;;;;;;;;5091354;28;19924;-74
2021/12/30 13:34:52;;;;;;;;;;;;;;;;;;5091694;28;19924;-74
2021/12/30 13:37:19;;;;;;;;;;;;;;;;;;5091223;28;19931;-74
2021/12/30 13:39:46;;;;;;;;;;;;;;;;;;5091508;28;19924;-73
2021/12/30 13:42:13;;;;;;;;;;;;;;;;;;5091280;28;19936;-73
2021/12/30 13:44:40;;;;;;;;;;;;;;;;;;5091585;28;19932;-74
2021/12/30 13:47:07;;;;;;;;;;;;;;;;;;5090873;28;19928;-73
2021/12/30 13:49:34;;;;;;;;;;;;;;;;;;5091335;28;19924;-73
2021/12/30 13:52:01;;;;;;;;;;;;;;;;;;5091160;28;19931;-74
2021/12/30 13:54:28;;;;;;;;;;;;;;;;;;5091675;28;20018;-74
2021/12/30 13:56:55;;;;;;;;;;;;;;;;;;5091236;28;19930;-73
2021/12/30 13:59:22;;;;;;;;;;;;;;;;;;5091270;28;19959;-73
2021/12/30 14:01:49;;;;;;;;;;;;;;;;;;5091053;28;19934;-74
2021/12/30 14:04:17;;;;;;;;;;;;;;;;;;5091600;28;20379;-74
2021/12/30 14:06:44;;;;;;;;;;;;;;;;;;5090878;28;20436;-74
2021/12/30 14:09:11;;;;;;;;;;;;;;;;;;5091384;28;20373;-74
2021/12/30 14:11:40;;;;;;;;;;;;;;;;;;5090616;28;20014;-73
2021/12/30 14:14:07;;;;;;;;;;;;;;;;;;5090698;28;19924;-74
2021/12/30 14:16:34;;;;;;;;;;;;;;;;;;5084561;28;19924;-74
2021/12/30 14:19:01;;;;;;;;;;;;;;;;;;5082587;28;20394;-74
2021/12/30 14:21:28;;;;;;;;;;;;;;;;;;5085417;28;19932;-74
2021/12/30 14:23:55;;;;;;;;;;;;;;;;;;5085564;28;19924;-74
2021/12/30 14:26:22;;;;;;;;;;;;;;;;;;5084401;28;20443;-74
2021/12/30 14:28:49;;;;;;;;;;;;;;;;;;5082223;28;19934;-74
2021/12/30 14:31:16;;;;;;;;;;;;;;;;;;5085632;28;19930;-74
2021/12/30 14:33:43;;;;;;;;;;;;;;;;;;5085562;28;20014;-74
2021/12/30 14:36:10;;;;;;;;;;;;;;;;;;5080728;28;19924;-74
2021/12/30 14:38:37;;;;;;;;;;;;;;;;;;5082043;28;20011;-73
2021/12/30 14:41:04;;;;;;;;;;;;;;;;;;5090479;28;19930;-73
2021/12/30 14:43:31;;;;;;;;;;;;;;;;;;5091090;28;19931;-73
2021/12/30 14:45:57;;;;;;;;;;;;;;;;;;5090642;28;20322;-73
2021/12/30 14:48:29;;;;;;;;;;;;;;;;;;5092391;28;20378;-73
2021/12/30 14:50:56;;;;;;;;;;;;;;;;;;5083763;28;19930;-73
2021/12/30 14:53:27;;;;;;;;;;;;;;;;;;5094473;28;19924;-73
2021/12/30 14:55:54;;;;;;;;;;;;;;;;;;5093976;28;19927;-73
2021/12/30 14:58:21;;;;;;;;;;;;;;;;;;5094319;28;19924;-73
2021/12/30 15:00:48;;;;;;;;;;;;;;;;;;5094243;28;19935;-73
2021/12/30 15:03:15;;;;;;;;;;;;;;;;;;5094351;28;20297;-74
2021/12/30 15:05:42;;;;;;;;;;;;;;;;;;5094044;28;19925;-73
2021/12/30 15:08:09;;;;;;;;;;;;;;;;;;5094043;28;19930;-74
2021/12/30 15:10:36;;;;;;;;;;;;;;;;;;5094207;28;19924;-73
2021/12/30 15:13:05;;;;;;;;;;;;;;;;;;5094218;28;19924;-73
2021/12/30 15:15:32;;;;;;;;;;;;;;;;;;5094184;28;19993;-73
2021/12/30 15:17:59;;;;;;;;;;;;;;;;;;5094329;28;20362;-73
2021/12/30 15:20:28;;;;;;;;;;;;;;;;;;5083158;28;19970;-73
2021/12/30 15:22:55;;;;;;;;;;;;;;;;;;5094160;28;19924;-74
2021/12/30 15:25:21;;;;;;;;;;;;;;;;;;5093747;28;19924;-74
2021/12/30 15:27:49;;;;;;;;;;;;;;;;;;5093915;28;20416;-74
2021/12/30 15:30:16;;;;;;;;;;;;;;;;;;5082653;28;19924;-72
2021/12/30 15:32:43;;;;;;;;;;;;;;;;;;5093835;28;20327;-74
2021/12/30 15:35:10;;;;;;;;;;;;;;;;;;5093255;28;20386;-73
2021/12/30 15:37:37;;;;;;;;;;;;;;;;;;5093666;28;19924;-74
2021/12/30 15:40:04;;;;;;;;;;;;;;;;;;5093360;28;19924;-73
2021/12/30 15:42:31;;;;;;;;;;;;;;;;;;5093515;28;19924;-73
2021/12/30 15:44:58;;;;;;;;;;;;;;;;;;5093495;28;19928;-73
2021/12/30 15:47:25;;;;;;;;;;;;;;;;;;5093270;28;19930;-73
2021/12/30 15:49:52;;;;;;;;;;;;;;;;;;5093311;28;19924;-73
2021/12/30 15:52:19;;;;;;;;;;;;;;;;;;5088695;28;19939;-72
2021/12/30 15:54:46;;;;;;;;;;;;;;;;;;5099783;28;19924;-72
2021/12/30 15:57:14;;;;;;;;;;;;;;;;;;5094277;28;19931;-73
2021/12/30 15:59:43;;;;;;;;;;;;;;;;;;5093012;28;20019;-74
2021/12/30 16:02:10;;;;;;;;;;;;;;;;;;5093091;28;20284;-74
2021/12/30 16:04:37;;;;;;;;;;;;;;;;;;5092780;28;19979;-72
2021/12/30 16:07:04;;;;;;;;;;;;;;;;;;5093445;28;19924;-72
2021/12/30 16:09:31;;;;;;;;;;;;;;;;;;5093051;28;19954;-72
2021/12/30 16:11:59;;;;;;;;;;;;;;;;;;5092697;28;19924;-72
2021/12/30 16:14:26;;;;;;;;;;;;;;;;;;5092761;28;19924;-73
2021/12/30 16:16:53;;;;;;;;;;;;;;;;;;5093424;28;20031;-72
2021/12/30 16:19:20;;;;;;;;;;;;;;;;;;5087781;28;19924;-73
2021/12/30 16:21:47;;;;;;;;;;;;;;;;;;5092453;28;20408;-73
2021/12/30 16:24:14;;;;;;;;;;;;;;;;;;5092907;28;19924;-74
2021/12/30 16:26:41;;;;;;;;;;;;;;;;;;5092513;28;19936;-73
2021/12/30 16:29:08;;;;;;;;;;;;;;;;;;5092671;28;19924;-73
2021/12/30 16:31:35;;;;;;;;;;;;;;;;;;5091973;28;19931;-73
2021/12/30 16:34:02;;;;;;;;;;;;;;;;;;5092785;28;19924;-72
2021/12/30 16:36:29;;;;;;;;;;;;;;;;;;5087530;28;19975;-73
2021/12/30 16:38:56;;;;;;;;;;;;;;;;;;5092682;28;19931;-73
2021/12/30 16:41:23;;;;;;;;;;;;;;;;;;5092403;28;19924;-73
2021/12/30 16:43:50;;;;;;;;;;;;;;;;;;5092362;28;19931;-73